sensor_id;sensor_type;location;lat;lon;timestamp;P1;durP1;ratioP1;P2;durP2;ratioP2
8361;SDS011;4218;48.326;14.304;2023-07-13T00:02:21;52.87;;;50.47;;
8361;SDS011;4218;48.326;14.304;2023-07-13T00:04:46;54.27;;;51.77;;
8361;SDS011;4218;48.326;14.304;2023-07-13T00:07:11;58.10;;;55.00;;
8361;SDS011;4218;48.326;14.304;2023-07-13T00:09:39;44.90;;;42.80;;
8361;SDS011;4218;48.326;14.304;2023-07-13T00:12:04;52.87;;;50.47;;
8361;SDS011;4218;48.326;14.304;2023-07-13T00:14:30;77.47;;;73.80;;
8361;SDS011;4218;48.326;14.304;2023-07-13T00:16:56;58.30;;;55.60;;
8361;SDS011;4218;48.326;14.304;2023-07-13T00:19:21;45.53;;;43.43;;
8361;SDS011;4218;48.326;14.304;2023-07-13T00:21:46;79.77;;;75.90;;
8361;SDS011;4218;48.326;14.304;2023-07-13T00:24:12;45.50;;;43.37;;
8361;SDS011;4218;48.326;14.304;2023-07-13T00:26:38;43.97;;;41.97;;
8361;SDS011;4218;48.326;14.304;2023-07-13T00:29:04;37.50;;;35.80;;
8361;SDS011;4218;48.326;14.304;2023-07-13T00:31:33;57.30;;;54.67;;
8361;SDS011;4218;48.326;14.304;2023-07-13T00:33:59;102.90;;;98.30;;
8361;SDS011;4218;48.326;14.304;2023-07-13T00:36:25;76.97;;;73.43;;
8361;SDS011;4218;48.326;14.304;2023-07-13T00:38:51;51.70;;;49.27;;
8361;SDS011;4218;48.326;14.304;2023-07-13T00:41:16;54.43;;;51.93;;
8361;SDS011;4218;48.326;14.304;2023-07-13T00:43:41;83.60;;;79.77;;
8361;SDS011;4218;48.326;14.304;2023-07-13T00:46:13;74.50;;;71.03;;
8361;SDS011;4218;48.326;14.304;2023-07-13T00:48:39;50.07;;;47.63;;
8361;SDS011;4218;48.326;14.304;2023-07-13T00:51:04;95.23;;;90.97;;
8361;SDS011;4218;48.326;14.304;2023-07-13T00:53:30;65.50;;;62.53;;
8361;SDS011;4218;48.326;14.304;2023-07-13T00:55:56;81.00;;;77.33;;
8361;SDS011;4218;48.326;14.304;2023-07-13T00:58:23;70.47;;;66.73;;
8361;SDS011;4218;48.326;14.304;2023-07-13T01:00:49;64.00;;;61.10;;
8361;SDS011;4218;48.326;14.304;2023-07-13T01:03:15;41.47;;;39.50;;
8361;SDS011;4218;48.326;14.304;2023-07-13T01:05:41;75.77;;;72.13;;
8361;SDS011;4218;48.326;14.304;2023-07-13T01:08:06;61.73;;;58.73;;
8361;SDS011;4218;48.326;14.304;2023-07-13T01:10:34;55.10;;;52.60;;
8361;SDS011;4218;48.326;14.304;2023-07-13T01:13:05;34.67;;;33.03;;
8361;SDS011;4218;48.326;14.304;2023-07-13T01:15:38;48.73;;;46.33;;
8361;SDS011;4218;48.326;14.304;2023-07-13T01:18:08;31.90;;;30.23;;
8361;SDS011;4218;48.326;14.304;2023-07-13T01:20:34;46.43;;;44.17;;
8361;SDS011;4218;48.326;14.304;2023-07-13T01:23:11;63.43;;;60.43;;
8361;SDS011;4218;48.326;14.304;2023-07-13T01:25:38;60.97;;;57.87;;
8361;SDS011;4218;48.326;14.304;2023-07-13T01:28:04;89.20;;;84.80;;
8361;SDS011;4218;48.326;14.304;2023-07-13T01:30:29;66.27;;;63.13;;
8361;SDS011;4218;48.326;14.304;2023-07-13T01:32:54;34.53;;;32.63;;
8361;SDS011;4218;48.326;14.304;2023-07-13T01:35:20;65.17;;;61.83;;
8361;SDS011;4218;48.326;14.304;2023-07-13T01:37:45;64.90;;;61.87;;
8361;SDS011;4218;48.326;14.304;2023-07-13T01:40:10;48.20;;;45.83;;
8361;SDS011;4218;48.326;14.304;2023-07-13T01:42:36;54.27;;;51.53;;
8361;SDS011;4218;48.326;14.304;2023-07-13T01:45:01;62.50;;;59.47;;
8361;SDS011;4218;48.326;14.304;2023-07-13T01:47:27;55.60;;;52.90;;
8361;SDS011;4218;48.326;14.304;2023-07-13T01:49:52;52.50;;;49.90;;
8361;SDS011;4218;48.326;14.304;2023-07-13T01:52:18;56.87;;;54.17;;
8361;SDS011;4218;48.326;14.304;2023-07-13T01:54:43;53.17;;;50.67;;
8361;SDS011;4218;48.326;14.304;2023-07-13T01:57:08;46.57;;;44.07;;
8361;SDS011;4218;48.326;14.304;2023-07-13T01:59:33;59.03;;;56.20;;
8361;SDS011;4218;48.326;14.304;2023-07-13T02:01:59;53.60;;;50.87;;
8361;SDS011;4218;48.326;14.304;2023-07-13T02:04:24;59.77;;;56.97;;
8361;SDS011;4218;48.326;14.304;2023-07-13T02:06:49;54.63;;;52.00;;
8361;SDS011;4218;48.326;14.304;2023-07-13T02:09:14;62.87;;;59.87;;
8361;SDS011;4218;48.326;14.304;2023-07-13T02:11:40;52.17;;;49.57;;
8361;SDS011;4218;48.326;14.304;2023-07-13T02:14:05;50.23;;;47.53;;
8361;SDS011;4218;48.326;14.304;2023-07-13T02:16:30;60.50;;;57.67;;
8361;SDS011;4218;48.326;14.304;2023-07-13T02:18:56;69.37;;;66.07;;
8361;SDS011;4218;48.326;14.304;2023-07-13T02:21:21;69.40;;;66.00;;
8361;SDS011;4218;48.326;14.304;2023-07-13T02:23:47;85.50;;;81.50;;
8361;SDS011;4218;48.326;14.304;2023-07-13T02:26:13;55.13;;;52.27;;
8361;SDS011;4218;48.326;14.304;2023-07-13T02:28:38;65.17;;;62.10;;
8361;SDS011;4218;48.326;14.304;2023-07-13T02:31:04;64.70;;;61.50;;
8361;SDS011;4218;48.326;14.304;2023-07-13T02:33:29;62.27;;;59.30;;
8361;SDS011;4218;48.326;14.304;2023-07-13T02:35:54;53.97;;;51.37;;
8361;SDS011;4218;48.326;14.304;2023-07-13T02:38:20;51.10;;;48.70;;
8361;SDS011;4218;48.326;14.304;2023-07-13T02:40:46;80.70;;;76.90;;
8361;SDS011;4218;48.326;14.304;2023-07-13T02:43:11;41.07;;;39.13;;
8361;SDS011;4218;48.326;14.304;2023-07-13T02:45:37;63.63;;;60.67;;
8361;SDS011;4218;48.326;14.304;2023-07-13T02:48:02;81.33;;;77.57;;
8361;SDS011;4218;48.326;14.304;2023-07-13T02:50:27;102.03;;;97.23;;
8361;SDS011;4218;48.326;14.304;2023-07-13T02:52:52;123.53;;;118.00;;
8361;SDS011;4218;48.326;14.304;2023-07-13T02:55:18;110.37;;;105.33;;
8361;SDS011;4218;48.326;14.304;2023-07-13T02:57:43;82.90;;;78.97;;
8361;SDS011;4218;48.326;14.304;2023-07-13T03:00:08;77.33;;;73.63;;
8361;SDS011;4218;48.326;14.304;2023-07-13T03:02:34;81.97;;;78.07;;
8361;SDS011;4218;48.326;14.304;2023-07-13T03:05:00;63.67;;;60.67;;
8361;SDS011;4218;48.326;14.304;2023-07-13T03:07:25;66.17;;;62.83;;
8361;SDS011;4218;48.326;14.304;2023-07-13T03:09:55;59.80;;;56.77;;
8361;SDS011;4218;48.326;14.304;2023-07-13T03:12:20;63.70;;;60.53;;
8361;SDS011;4218;48.326;14.304;2023-07-13T03:14:46;65.97;;;62.90;;
8361;SDS011;4218;48.326;14.304;2023-07-13T03:17:11;68.43;;;65.07;;
8361;SDS011;4218;48.326;14.304;2023-07-13T03:19:36;60.90;;;58.03;;
8361;SDS011;4218;48.326;14.304;2023-07-13T03:22:02;54.93;;;52.30;;
8361;SDS011;4218;48.326;14.304;2023-07-13T03:24:27;75.30;;;71.77;;
8361;SDS011;4218;48.326;14.304;2023-07-13T03:26:52;74.17;;;70.70;;
8361;SDS011;4218;48.326;14.304;2023-07-13T03:29:18;60.63;;;57.80;;
8361;SDS011;4218;48.326;14.304;2023-07-13T03:31:43;57.97;;;55.27;;
8361;SDS011;4218;48.326;14.304;2023-07-13T03:34:08;68.37;;;65.10;;
8361;SDS011;4218;48.326;14.304;2023-07-13T03:36:33;54.57;;;51.67;;
8361;SDS011;4218;48.326;14.304;2023-07-13T03:38:59;46.20;;;44.00;;
8361;SDS011;4218;48.326;14.304;2023-07-13T03:41:25;44.93;;;42.83;;
8361;SDS011;4218;48.326;14.304;2023-07-13T03:43:50;46.97;;;44.47;;
8361;SDS011;4218;48.326;14.304;2023-07-13T03:46:16;49.07;;;46.73;;
8361;SDS011;4218;48.326;14.304;2023-07-13T03:48:43;45.70;;;43.47;;
8361;SDS011;4218;48.326;14.304;2023-07-13T03:51:09;42.13;;;40.03;;
8361;SDS011;4218;48.326;14.304;2023-07-13T03:53:38;43.27;;;40.93;;
8361;SDS011;4218;48.326;14.304;2023-07-13T03:56:03;48.70;;;46.33;;
8361;SDS011;4218;48.326;14.304;2023-07-13T03:58:30;51.63;;;49.00;;
8361;SDS011;4218;48.326;14.304;2023-07-13T04:00:56;81.47;;;77.47;;
8361;SDS011;4218;48.326;14.304;2023-07-13T04:03:22;55.13;;;52.47;;
8361;SDS011;4218;48.326;14.304;2023-07-13T04:05:47;54.47;;;51.87;;
8361;SDS011;4218;48.326;14.304;2023-07-13T04:08:12;32.13;;;30.60;;
8361;SDS011;4218;48.326;14.304;2023-07-13T04:10:38;60.17;;;57.17;;
8361;SDS011;4218;48.326;14.304;2023-07-13T04:13:03;57.50;;;54.80;;
8361;SDS011;4218;48.326;14.304;2023-07-13T04:15:29;54.77;;;51.97;;
8361;SDS011;4218;48.326;14.304;2023-07-13T04:17:54;54.33;;;51.80;;
8361;SDS011;4218;48.326;14.304;2023-07-13T04:20:19;43.17;;;40.97;;
8361;SDS011;4218;48.326;14.304;2023-07-13T04:22:45;44.17;;;41.77;;
8361;SDS011;4218;48.326;14.304;2023-07-13T04:25:10;45.70;;;43.50;;
8361;SDS011;4218;48.326;14.304;2023-07-13T04:27:36;40.10;;;38.00;;
8361;SDS011;4218;48.326;14.304;2023-07-13T04:30:01;43.13;;;41.07;;
8361;SDS011;4218;48.326;14.304;2023-07-13T04:32:26;43.10;;;40.93;;
8361;SDS011;4218;48.326;14.304;2023-07-13T04:34:51;44.37;;;42.17;;
8361;SDS011;4218;48.326;14.304;2023-07-13T04:37:18;62.97;;;59.77;;
8361;SDS011;4218;48.326;14.304;2023-07-13T04:39:43;73.03;;;69.40;;
8361;SDS011;4218;48.326;14.304;2023-07-13T04:42:08;44.67;;;42.47;;
8361;SDS011;4218;48.326;14.304;2023-07-13T04:44:33;96.60;;;91.80;;
8361;SDS011;4218;48.326;14.304;2023-07-13T04:46:59;93.50;;;88.80;;
8361;SDS011;4218;48.326;14.304;2023-07-13T04:49:24;113.10;;;107.30;;
8361;SDS011;4218;48.326;14.304;2023-07-13T04:51:49;146.30;;;138.93;;
8361;SDS011;4218;48.326;14.304;2023-07-13T04:54:14;160.43;;;152.77;;
8361;SDS011;4218;48.326;14.304;2023-07-13T04:56:40;190.87;;;181.30;;
8361;SDS011;4218;48.326;14.304;2023-07-13T04:59:05;210.07;;;199.70;;
8361;SDS011;4218;48.326;14.304;2023-07-13T05:01:30;157.23;;;149.20;;
8361;SDS011;4218;48.326;14.304;2023-07-13T05:03:56;66.97;;;63.73;;
8361;SDS011;4218;48.326;14.304;2023-07-13T05:06:23;66.83;;;63.60;;
8361;SDS011;4218;48.326;14.304;2023-07-13T05:08:48;91.57;;;87.13;;
8361;SDS011;4218;48.326;14.304;2023-07-13T05:11:14;78.57;;;75.00;;
8361;SDS011;4218;48.326;14.304;2023-07-13T05:13:39;54.27;;;51.70;;
8361;SDS011;4218;48.326;14.304;2023-07-13T05:16:05;34.07;;;32.47;;
8361;SDS011;4218;48.326;14.304;2023-07-13T05:18:32;95.50;;;91.10;;
8361;SDS011;4218;48.326;14.304;2023-07-13T05:23:26;122.63;;;117.13;;
8361;SDS011;4218;48.326;14.304;2023-07-13T05:25:51;147.80;;;141.20;;
8361;SDS011;4218;48.326;14.304;2023-07-13T05:28:16;153.90;;;147.00;;
8361;SDS011;4218;48.326;14.304;2023-07-13T05:30:45;95.17;;;90.73;;
8361;SDS011;4218;48.326;14.304;2023-07-13T05:33:10;94.10;;;89.67;;
8361;SDS011;4218;48.326;14.304;2023-07-13T05:35:36;74.50;;;70.90;;
8361;SDS011;4218;48.326;14.304;2023-07-13T05:38:01;55.23;;;52.53;;
8361;SDS011;4218;48.326;14.304;2023-07-13T05:40:26;56.93;;;54.00;;
8361;SDS011;4218;48.326;14.304;2023-07-13T05:42:53;44.13;;;42.00;;
8361;SDS011;4218;48.326;14.304;2023-07-13T05:45:20;35.83;;;34.17;;
8361;SDS011;4218;48.326;14.304;2023-07-13T05:47:45;81.83;;;77.80;;
8361;SDS011;4218;48.326;14.304;2023-07-13T05:50:11;87.23;;;83.10;;
8361;SDS011;4218;48.326;14.304;2023-07-13T05:52:39;63.30;;;60.20;;
8361;SDS011;4218;48.326;14.304;2023-07-13T05:55:07;34.63;;;33.03;;
8361;SDS011;4218;48.326;14.304;2023-07-13T05:57:33;38.33;;;36.50;;
8361;SDS011;4218;48.326;14.304;2023-07-13T05:59:58;108.40;;;103.50;;
8361;SDS011;4218;48.326;14.304;2023-07-13T06:02:23;44.77;;;42.57;;
8361;SDS011;4218;48.326;14.304;2023-07-13T06:04:48;49.60;;;47.07;;
8361;SDS011;4218;48.326;14.304;2023-07-13T06:07:14;73.97;;;70.53;;
8361;SDS011;4218;48.326;14.304;2023-07-13T06:09:42;43.67;;;41.43;;
8361;SDS011;4218;48.326;14.304;2023-07-13T06:12:07;99.07;;;94.40;;
8361;SDS011;4218;48.326;14.304;2023-07-13T06:14:33;49.87;;;47.37;;
8361;SDS011;4218;48.326;14.304;2023-07-13T06:16:58;43.53;;;41.47;;
8361;SDS011;4218;48.326;14.304;2023-07-13T06:19:24;100.27;;;95.67;;
8361;SDS011;4218;48.326;14.304;2023-07-13T06:21:50;100.33;;;95.63;;
8361;SDS011;4218;48.326;14.304;2023-07-13T06:24:15;40.53;;;38.43;;
8361;SDS011;4218;48.326;14.304;2023-07-13T06:26:43;66.17;;;63.07;;
8361;SDS011;4218;48.326;14.304;2023-07-13T06:29:08;36.07;;;34.33;;
8361;SDS011;4218;48.326;14.304;2023-07-13T06:31:33;43.03;;;40.77;;
8361;SDS011;4218;48.326;14.304;2023-07-13T06:33:58;44.23;;;42.07;;
8361;SDS011;4218;48.326;14.304;2023-07-13T06:36:24;47.93;;;45.77;;
8361;SDS011;4218;48.326;14.304;2023-07-13T06:38:49;52.10;;;49.60;;
8361;SDS011;4218;48.326;14.304;2023-07-13T06:41:14;49.93;;;47.57;;
8361;SDS011;4218;48.326;14.304;2023-07-13T06:43:39;39.40;;;37.57;;
8361;SDS011;4218;48.326;14.304;2023-07-13T06:46:05;38.97;;;36.83;;
8361;SDS011;4218;48.326;14.304;2023-07-13T06:48:30;43.63;;;41.60;;
8361;SDS011;4218;48.326;14.304;2023-07-13T06:50:55;75.07;;;71.67;;
8361;SDS011;4218;48.326;14.304;2023-07-13T06:53:21;64.83;;;61.83;;
8361;SDS011;4218;48.326;14.304;2023-07-13T06:55:47;55.37;;;52.83;;
8361;SDS011;4218;48.326;14.304;2023-07-13T06:58:14;38.97;;;37.17;;
8361;SDS011;4218;48.326;14.304;2023-07-13T07:00:39;35.23;;;33.60;;
8361;SDS011;4218;48.326;14.304;2023-07-13T07:03:05;34.67;;;32.87;;
8361;SDS011;4218;48.326;14.304;2023-07-13T07:05:30;35.53;;;33.67;;
8361;SDS011;4218;48.326;14.304;2023-07-13T07:07:55;55.10;;;52.40;;
8361;SDS011;4218;48.326;14.304;2023-07-13T07:10:21;41.77;;;39.60;;
8361;SDS011;4218;48.326;14.304;2023-07-13T07:12:46;51.57;;;49.13;;
8361;SDS011;4218;48.326;14.304;2023-07-13T07:15:12;51.97;;;49.43;;
8361;SDS011;4218;48.326;14.304;2023-07-13T07:17:37;33.77;;;32.17;;
8361;SDS011;4218;48.326;14.304;2023-07-13T07:20:03;38.87;;;37.10;;
8361;SDS011;4218;48.326;14.304;2023-07-13T07:22:29;30.33;;;28.87;;
8361;SDS011;4218;48.326;14.304;2023-07-13T07:24:55;43.67;;;41.60;;
8361;SDS011;4218;48.326;14.304;2023-07-13T07:27:20;38.53;;;36.80;;
8361;SDS011;4218;48.326;14.304;2023-07-13T07:29:45;56.70;;;54.00;;
8361;SDS011;4218;48.326;14.304;2023-07-13T07:32:11;39.40;;;37.50;;
8361;SDS011;4218;48.326;14.304;2023-07-13T07:34:36;65.23;;;62.33;;
8361;SDS011;4218;48.326;14.304;2023-07-13T07:37:01;53.73;;;51.27;;
8361;SDS011;4218;48.326;14.304;2023-07-13T07:39:28;28.57;;;27.30;;
8361;SDS011;4218;48.326;14.304;2023-07-13T07:41:54;27.50;;;26.23;;
8361;SDS011;4218;48.326;14.304;2023-07-13T07:44:19;39.13;;;37.30;;
8361;SDS011;4218;48.326;14.304;2023-07-13T07:46:44;33.57;;;32.03;;
8361;SDS011;4218;48.326;14.304;2023-07-13T07:49:09;30.57;;;29.13;;
8361;SDS011;4218;48.326;14.304;2023-07-13T07:51:35;29.77;;;28.23;;
8361;SDS011;4218;48.326;14.304;2023-07-13T07:54:01;37.30;;;35.53;;
8361;SDS011;4218;48.326;14.304;2023-07-13T07:56:26;39.93;;;38.03;;
8361;SDS011;4218;48.326;14.304;2023-07-13T07:58:51;37.23;;;35.53;;
8361;SDS011;4218;48.326;14.304;2023-07-13T08:01:16;54.97;;;52.50;;
8361;SDS011;4218;48.326;14.304;2023-07-13T08:03:41;49.93;;;47.63;;
8361;SDS011;4218;48.326;14.304;2023-07-13T08:06:07;40.73;;;38.77;;
8361;SDS011;4218;48.326;14.304;2023-07-13T08:08:32;37.10;;;35.33;;
8361;SDS011;4218;48.326;14.304;2023-07-13T08:10:57;37.53;;;35.87;;
8361;SDS011;4218;48.326;14.304;2023-07-13T08:13:22;39.87;;;38.03;;
8361;SDS011;4218;48.326;14.304;2023-07-13T08:15:47;41.53;;;39.67;;
8361;SDS011;4218;48.326;14.304;2023-07-13T08:18:14;45.63;;;43.53;;
8361;SDS011;4218;48.326;14.304;2023-07-13T08:20:40;50.23;;;47.93;;
8361;SDS011;4218;48.326;14.304;2023-07-13T08:23:09;43.40;;;41.40;;
8361;SDS011;4218;48.326;14.304;2023-07-13T08:25:34;43.20;;;41.23;;
8361;SDS011;4218;48.326;14.304;2023-07-13T08:27:59;42.17;;;40.17;;
8361;SDS011;4218;48.326;14.304;2023-07-13T08:30:25;65.43;;;62.43;;
8361;SDS011;4218;48.326;14.304;2023-07-13T08:32:50;32.53;;;31.07;;
8361;SDS011;4218;48.326;14.304;2023-07-13T08:35:15;30.63;;;29.13;;
8361;SDS011;4218;48.326;14.304;2023-07-13T08:37:41;57.53;;;54.67;;
8361;SDS011;4218;48.326;14.304;2023-07-13T08:40:08;48.30;;;46.03;;
8361;SDS011;4218;48.326;14.304;2023-07-13T08:42:37;40.13;;;38.23;;
8361;SDS011;4218;48.326;14.304;2023-07-13T08:45:22;51.23;;;48.83;;
8361;SDS011;4218;48.326;14.304;2023-07-13T08:47:52;34.97;;;33.33;;
8361;SDS011;4218;48.326;14.304;2023-07-13T08:50:19;35.37;;;33.80;;
8361;SDS011;4218;48.326;14.304;2023-07-13T08:52:46;33.23;;;31.70;;
8361;SDS011;4218;48.326;14.304;2023-07-13T08:55:13;27.47;;;26.17;;
8361;SDS011;4218;48.326;14.304;2023-07-13T08:57:39;34.10;;;32.43;;
8361;SDS011;4218;48.326;14.304;2023-07-13T09:00:08;31.67;;;30.23;;
8361;SDS011;4218;48.326;14.304;2023-07-13T09:02:49;44.47;;;42.40;;
8361;SDS011;4218;48.326;14.304;2023-07-13T09:05:18;34.50;;;32.93;;
8361;SDS011;4218;48.326;14.304;2023-07-13T09:10:30;33.03;;;31.53;;
8361;SDS011;4218;48.326;14.304;2023-07-13T09:15:26;32.47;;;30.73;;
8361;SDS011;4218;48.326;14.304;2023-07-13T09:17:55;25.13;;;24.00;;
8361;SDS011;4218;48.326;14.304;2023-07-13T09:22:47;48.23;;;45.73;;
8361;SDS011;4218;48.326;14.304;2023-07-13T09:27:44;45.63;;;43.60;;
8361;SDS011;4218;48.326;14.304;2023-07-13T09:32:43;45.57;;;43.30;;
8361;SDS011;4218;48.326;14.304;2023-07-13T09:35:10;33.37;;;31.87;;
8361;SDS011;4218;48.326;14.304;2023-07-13T09:37:36;41.43;;;39.53;;
8361;SDS011;4218;48.326;14.304;2023-07-13T09:40:02;50.50;;;48.17;;
8361;SDS011;4218;48.326;14.304;2023-07-13T09:42:34;35.30;;;33.70;;
8361;SDS011;4218;48.326;14.304;2023-07-13T09:45:00;37.10;;;35.43;;
8361;SDS011;4218;48.326;14.304;2023-07-13T09:47:28;48.27;;;46.00;;
8361;SDS011;4218;48.326;14.304;2023-07-13T09:50:05;57.10;;;54.50;;
8361;SDS011;4218;48.326;14.304;2023-07-13T09:52:41;53.43;;;50.97;;
8361;SDS011;4218;48.326;14.304;2023-07-13T09:55:26;35.60;;;33.80;;
8361;SDS011;4218;48.326;14.304;2023-07-13T09:57:53;40.97;;;39.03;;
8361;SDS011;4218;48.326;14.304;2023-07-13T10:00:23;50.47;;;47.87;;
8361;SDS011;4218;48.326;14.304;2023-07-13T10:02:57;43.93;;;41.93;;
8361;SDS011;4218;48.326;14.304;2023-07-13T10:05:22;26.17;;;24.90;;
8361;SDS011;4218;48.326;14.304;2023-07-13T10:07:49;54.13;;;51.47;;
8361;SDS011;4218;48.326;14.304;2023-07-13T10:10:19;83.60;;;79.93;;
8361;SDS011;4218;48.326;14.304;2023-07-13T10:12:46;69.47;;;66.33;;
8361;SDS011;4218;48.326;14.304;2023-07-13T10:15:15;38.70;;;36.90;;
8361;SDS011;4218;48.326;14.304;2023-07-13T10:17:41;43.40;;;41.40;;
8361;SDS011;4218;48.326;14.304;2023-07-13T10:20:09;57.40;;;54.80;;
8361;SDS011;4218;48.326;14.304;2023-07-13T10:25:07;46.00;;;43.83;;
8361;SDS011;4218;48.326;14.304;2023-07-13T10:27:37;41.70;;;39.80;;
8361;SDS011;4218;48.326;14.304;2023-07-13T10:30:21;25.20;;;23.90;;
8361;SDS011;4218;48.326;14.304;2023-07-13T10:32:50;48.03;;;45.80;;
8361;SDS011;4218;48.326;14.304;2023-07-13T10:35:20;38.87;;;37.10;;
8361;SDS011;4218;48.326;14.304;2023-07-13T10:37:49;41.07;;;39.23;;
8361;SDS011;4218;48.326;14.304;2023-07-13T10:40:31;34.43;;;32.87;;
8361;SDS011;4218;48.326;14.304;2023-07-13T10:42:58;21.23;;;20.30;;
8361;SDS011;4218;48.326;14.304;2023-07-13T10:45:27;31.23;;;29.77;;
8361;SDS011;4218;48.326;14.304;2023-07-13T10:47:54;33.33;;;31.80;;
8361;SDS011;4218;48.326;14.304;2023-07-13T10:50:25;36.50;;;34.90;;
8361;SDS011;4218;48.326;14.304;2023-07-13T10:52:52;37.47;;;35.67;;
8361;SDS011;4218;48.326;14.304;2023-07-13T10:58:40;25.80;;;24.67;;
8361;SDS011;4218;48.326;14.304;2023-07-13T11:00:47;49.80;;;47.57;;
8361;SDS011;4218;48.326;14.304;2023-07-13T11:03:14;45.57;;;43.47;;
8361;SDS011;4218;48.326;14.304;2023-07-13T11:05:40;44.43;;;42.33;;
8361;SDS011;4218;48.326;14.304;2023-07-13T11:08:19;50.63;;;48.30;;
8361;SDS011;4218;48.326;14.304;2023-07-13T11:15:58;67.97;;;64.93;;
8361;SDS011;4218;48.326;14.304;2023-07-13T11:18:23;57.33;;;54.57;;
8361;SDS011;4218;48.326;14.304;2023-07-13T11:20:50;58.83;;;56.07;;
8361;SDS011;4218;48.326;14.304;2023-07-13T11:25:45;56.00;;;53.53;;
8361;SDS011;4218;48.326;14.304;2023-07-13T11:31:17;43.47;;;41.47;;
8361;SDS011;4218;48.326;14.304;2023-07-13T11:33:24;79.63;;;76.07;;
8361;SDS011;4218;48.326;14.304;2023-07-13T11:38:22;50.30;;;47.77;;
8361;SDS011;4218;48.326;14.304;2023-07-13T11:40:48;39.00;;;37.20;;
8361;SDS011;4218;48.326;14.304;2023-07-13T11:43:15;58.57;;;55.87;;
8361;SDS011;4218;48.326;14.304;2023-07-13T11:45:41;51.77;;;49.43;;
8361;SDS011;4218;48.326;14.304;2023-07-13T11:50:49;48.23;;;45.93;;
8361;SDS011;4218;48.326;14.304;2023-07-13T11:53:14;45.47;;;43.37;;
8361;SDS011;4218;48.326;14.304;2023-07-13T11:55:40;40.60;;;38.77;;
8361;SDS011;4218;48.326;14.304;2023-07-13T11:58:07;47.97;;;45.77;;
8361;SDS011;4218;48.326;14.304;2023-07-13T12:00:34;36.77;;;35.03;;
8361;SDS011;4218;48.326;14.304;2023-07-13T12:03:00;28.37;;;27.13;;
8361;SDS011;4218;48.326;14.304;2023-07-13T12:05:27;33.53;;;32.00;;
8361;SDS011;4218;48.326;14.304;2023-07-13T12:07:52;32.40;;;30.90;;
8361;SDS011;4218;48.326;14.304;2023-07-13T12:10:23;21.23;;;20.23;;
8361;SDS011;4218;48.326;14.304;2023-07-13T12:15:18;41.83;;;39.80;;
8361;SDS011;4218;48.326;14.304;2023-07-13T12:17:46;37.33;;;35.67;;
8361;SDS011;4218;48.326;14.304;2023-07-13T12:20:20;35.90;;;34.22;;
8361;SDS011;4218;48.326;14.304;2023-07-13T12:22:48;35.05;;;33.42;;
8361;SDS011;4218;48.326;14.304;2023-07-13T12:25:15;35.53;;;33.92;;
8361;SDS011;4218;48.326;14.304;2023-07-13T12:27:40;27.73;;;26.47;;
8361;SDS011;4218;48.326;14.304;2023-07-13T12:30:20;28.63;;;27.27;;
8361;SDS011;4218;48.326;14.304;2023-07-13T12:33:00;27.52;;;26.30;;
8361;SDS011;4218;48.326;14.304;2023-07-13T12:35:25;28.98;;;27.67;;
8361;SDS011;4218;48.326;14.304;2023-07-13T12:37:51;26.00;;;24.88;;
8361;SDS011;4218;48.326;14.304;2023-07-13T12:40:21;39.08;;;37.30;;
8361;SDS011;4218;48.326;14.304;2023-07-13T12:42:50;39.40;;;37.63;;
8361;SDS011;4218;48.326;14.304;2023-07-13T12:45:21;37.28;;;35.60;;
8361;SDS011;4218;48.326;14.304;2023-07-13T12:47:52;28.48;;;27.17;;
8361;SDS011;4218;48.326;14.304;2023-07-13T12:50:21;30.15;;;28.83;;
8361;SDS011;4218;48.326;14.304;2023-07-13T12:52:51;38.65;;;36.95;;
8361;SDS011;4218;48.326;14.304;2023-07-13T12:55:17;26.60;;;25.38;;
8361;SDS011;4218;48.326;14.304;2023-07-13T12:58:04;33.22;;;31.63;;
8361;SDS011;4218;48.326;14.304;2023-07-13T13:03:05;26.83;;;25.45;;
8361;SDS011;4218;48.326;14.304;2023-07-13T13:05:31;32.15;;;30.73;;
8361;SDS011;4218;48.326;14.304;2023-07-13T13:07:57;25.15;;;24.05;;
8361;SDS011;4218;48.326;14.304;2023-07-13T13:10:22;22.23;;;21.23;;
8361;SDS011;4218;48.326;14.304;2023-07-13T13:12:48;39.08;;;37.33;;
8361;SDS011;4218;48.326;14.304;2023-07-13T13:15:13;20.88;;;19.98;;
8361;SDS011;4218;48.326;14.304;2023-07-13T13:17:38;25.17;;;24.02;;
8361;SDS011;4218;48.326;14.304;2023-07-13T13:20:13;30.63;;;29.30;;
8361;SDS011;4218;48.326;14.304;2023-07-13T13:22:39;26.15;;;25.02;;
8361;SDS011;4218;48.326;14.304;2023-07-13T13:25:04;36.78;;;35.17;;
8361;SDS011;4218;48.326;14.304;2023-07-13T13:27:30;39.47;;;37.65;;
8361;SDS011;4218;48.326;14.304;2023-07-13T13:29:55;29.85;;;28.55;;
8361;SDS011;4218;48.326;14.304;2023-07-13T13:32:21;35.28;;;33.60;;
8361;SDS011;4218;48.326;14.304;2023-07-13T13:34:49;42.28;;;40.38;;
8361;SDS011;4218;48.326;14.304;2023-07-13T13:37:20;34.25;;;32.75;;
8361;SDS011;4218;48.326;14.304;2023-07-13T13:39:45;35.80;;;34.15;;
8361;SDS011;4218;48.326;14.304;2023-07-13T13:42:11;60.55;;;57.90;;
8361;SDS011;4218;48.326;14.304;2023-07-13T13:44:37;58.17;;;55.58;;
8361;SDS011;4218;48.326;14.304;2023-07-13T13:47:02;67.88;;;64.82;;
8361;SDS011;4218;48.326;14.304;2023-07-13T13:49:28;44.28;;;42.20;;
8361;SDS011;4218;48.326;14.304;2023-07-13T13:51:54;23.77;;;22.77;;
8361;SDS011;4218;48.326;14.304;2023-07-13T13:54:20;32.13;;;30.67;;
8361;SDS011;4218;48.326;14.304;2023-07-13T13:56:46;61.95;;;59.15;;
8361;SDS011;4218;48.326;14.304;2023-07-13T13:59:12;30.92;;;29.55;;
8361;SDS011;4218;48.326;14.304;2023-07-13T14:01:37;38.40;;;36.65;;
8361;SDS011;4218;48.326;14.304;2023-07-13T14:04:03;38.60;;;36.90;;
8361;SDS011;4218;48.326;14.304;2023-07-13T14:06:29;41.50;;;39.60;;
8361;SDS011;4218;48.326;14.304;2023-07-13T14:08:54;41.17;;;39.17;;
8361;SDS011;4218;48.326;14.304;2023-07-13T14:11:23;54.17;;;51.67;;
8361;SDS011;4218;48.326;14.304;2023-07-13T14:13:50;45.50;;;43.47;;
8361;SDS011;4218;48.326;14.304;2023-07-13T14:16:17;45.58;;;43.42;;
8361;SDS011;4218;48.326;14.304;2023-07-13T14:18:43;74.05;;;70.75;;
8361;SDS011;4218;48.326;14.304;2023-07-13T14:21:16;66.30;;;63.35;;
8361;SDS011;4218;48.326;14.304;2023-07-13T14:23:42;31.45;;;29.92;;
8361;SDS011;4218;48.326;14.304;2023-07-13T14:26:12;38.00;;;36.00;;
8361;SDS011;4218;48.326;14.304;2023-07-13T14:28:39;43.60;;;41.47;;
8361;SDS011;4218;48.326;14.304;2023-07-13T14:31:05;58.00;;;55.33;;
8361;SDS011;4218;48.326;14.304;2023-07-13T14:33:31;32.83;;;31.40;;
8361;SDS011;4218;48.326;14.304;2023-07-13T14:35:56;40.50;;;38.70;;
8361;SDS011;4218;48.326;14.304;2023-07-13T14:38:21;32.53;;;31.00;;
8361;SDS011;4218;48.326;14.304;2023-07-13T14:40:47;34.67;;;33.05;;
8361;SDS011;4218;48.326;14.304;2023-07-13T14:43:13;45.67;;;43.60;;
8361;SDS011;4218;48.326;14.304;2023-07-13T14:45:45;39.60;;;37.85;;
8361;SDS011;4218;48.326;14.304;2023-07-13T14:48:18;42.85;;;40.95;;
8361;SDS011;4218;48.326;14.304;2023-07-13T14:50:43;27.00;;;25.80;;
8361;SDS011;4218;48.326;14.304;2023-07-13T14:53:10;29.58;;;28.15;;
8361;SDS011;4218;48.326;14.304;2023-07-13T14:55:35;30.45;;;29.10;;
8361;SDS011;4218;48.326;14.304;2023-07-13T14:58:00;30.70;;;29.40;;
8361;SDS011;4218;48.326;14.304;2023-07-13T15:00:26;28.88;;;27.55;;
8361;SDS011;4218;48.326;14.304;2023-07-13T15:02:53;23.02;;;22.05;;
8361;SDS011;4218;48.326;14.304;2023-07-13T15:05:21;25.67;;;24.58;;
8361;SDS011;4218;48.326;14.304;2023-07-13T15:07:48;22.90;;;21.90;;
8361;SDS011;4218;48.326;14.304;2023-07-13T15:12:41;39.95;;;38.13;;
8361;SDS011;4218;48.326;14.304;2023-07-13T15:15:07;47.75;;;45.65;;